Ashland, Pennsylvania
Current Conditions -  °F | °C
As of 5:35 AM on Saturday 22 Nov 2014 (Local Time) from KHZL Reporting Station
Clear Clear  
Wind Chill: -10°   Ceiling: Unl
Heat Index: -10°   Visibility: 10mi
Dew Point: -13°   Wind: 0mph
Humidity: 79%   Direction: NA
Pressure: 30.4"   Gusts: NA
Location:  40.78°N, 76.35°W
Report Text: KHZL 221035Z AUTO 00000KT 10SM CLR M10/M13 A3040 RMK AO2
Loading
Personal Weather Stations






























Interactive Weather Map New forecast layout! Learn more

10-Day Weather Forecast

Advertisements
Track Severe Weather on mobile